Portada
METAR-TAF:

METAR-TAF

Aeroports :

Manado, Indonèsia

latitud: 01-32N, longitud: 124-55E, altitud: 80 m

Observació

L'informe es va fer fa 8 minuts, a les 22:30 UTC
Vent 1 kt amb direcció variable
Temperatura 24°C
Humitat 100%
Pressió
Visibilitat 10 km o més
Escasses núvols a una alçada de 2200 ft

METAR: WAMM 102230Z VRB01KT 9999 FEW022 24/24 Q101 NOSIG

Hora: 05:38 (22:38 UTC)

Pronòstic

L'informe es va fer fa 5 hores i 38 minuts, a les 17:00 UTC
Pronòstic vàlid del 10 a les 18 UTC al 11 a les 24 UTC
Vent 2 kt amb direcció variable
Visibilitat 10 km o més
Núvols disperses a una alçada de 2200 ft
Evolucionant progressivament
l' 10 a les 23 UTC al 11 a les 01 UTC
Vent 8 kt del Sud-Est
Probabilitat 40% :
Temporalment
l' 11 a les 04 UTC al 11 a les 08 UTC
Visibilitat: 5000 m
Escasses núvols a una alçada de 1600 ft, Cumulonimbus.
pluja

TAF: WAMM 101700Z 1018/1124 VRB02KT 9999 SCT022 BECMG 1023/1101 14008KT PROB40 TEMPO 1104/1108 5000 RA FEW016CB

Observacions i pronòstics meteorològics de més de 4000 aeroports (METAR i TAF).

Les estacions disponibles són els punts grocs i vermells al mapa.

Posi el ratolí al punt desitjat per veure el nom de l'estació.

Feu clic per veure les observacions i els pronòstics meteorològics.

Per canviar el mapa: feu clic els botons verds amb una creu de color negre per apropar; al botó verd amb un guió per allunyar la imatge; o en les fletxes verdes per a mapes adjacents.


METAR-TAF: